Ana Sayfa
METAR-TAF:

METAR-TAF

Havaalanları :

West Memphis, Arkansas, Amerika Birleşik Devletleri

Enlem: 35-08N, Boylam: 090-14W, yükseklik: 65 m

Güncel hava durumu gözlemi

Rapor saat 21:53 UTC de 11 dakika önce yapıldı.
Rüzgar kuzey/kuzeydoğudan 5 kt
Sıcaklık 32°C
Nem 43%
Basınç 1023 hPa
Görüş mesafesi: 16.1 km
6000 ft yükseklikte parçalı çok bulutlu

METAR: KAWM 202153Z AUTO 02005KT 10SM BKN060 32/18 A3020 RMK AO2 SLP220 T03220183

Saat: 17:04 (22:04 UTC)


TAF: eksik

4.000'den fazla havaalanı için hava durumu gözlemleri ve tahminleri (METAR ve TAF raporları).

Kullanılabilir istasyonlar harita üzerinde sarı ve kırmızı noktalarla gösterilir.

İstasyonun adını görmek için fareyi noktanın üzerinde gezdirin.

Sonrasında hava gözlem ve tahminlerini görmek için tıklayın.

Haritayı değiştirmek için: yaklaştırmak için siyah artı işaretli yeşil düğmeye ve uzaklaştırmak için de eksi işaretli düğmeye hızla tıklayın; bitişik haritalar için yeşil okları kullanın.


METAR-TAF: